| time (UTC) | temp F | wind direction | speed knots | gust knots | rain 1hr in | rain 24hr in | rain mn in | humidity % | barometer mb |
| 20260503002057 | 50 | 131 | 2.6 | 6.1 | 0.00 | 0.00 | 0.00 | 90 | 1011.1 |
| 20260503001600 | 50 | 131 | 4.3 | 6.1 | 0.00 | 0.00 | 0.00 | 89 | 1011.0 |
| 20260503001057 | 50 | 131 | 3.5 | 6.1 | 0.00 | 0.00 | 0.00 | 89 | 1011.0 |
| 20260503000556 | 50 | 142 | 3.5 | 6.1 | 0.00 | 0.00 | 0.00 | 89 | 1010.9 |
| 20260503000109 | 50 | 140 | 3.5 | 6.1 | 0.00 | 0.00 | 0.00 | 89 | 1010.8 |
| 20260502235556 | 50 | 123 | 1.7 | 3.5 | 0.00 | 0.00 | 0.00 | 89 | 1010.9 |
| 20260502235056 | 50 | 105 | 1.7 | 3.5 | 0.00 | 0.00 | 0.00 | 88 | 1010.7 |
| 20260502234559 | 50 | 105 | 1.7 | 4.3 | 0.00 | 0.00 | 0.00 | 88 | 1010.7 |
| 20260502234057 | 50 | 77 | 1.7 | 4.3 | 0.00 | 0.00 | 0.00 | 88 | 1010.8 |
| 20260502233556 | 50 | 131 | 2.6 | 4.3 | 0.00 | 0.00 | 0.00 | 88 | 1010.8 |
| 20260502233101 | 50 | 131 | 1.7 | 3.5 | 0.00 | 0.00 | 0.00 | 88 | 1011.0 |
| 20260502232557 | 50 | 131 | 2.6 | 5.2 | 0.00 | 0.00 | 0.00 | 88 | 1010.9 |
| 20260502232057 | 50 | 115 | 2.6 | 5.2 | 0.00 | 0.00 | 0.00 | 87 | 1010.9 |
| 20260502231602 | 51 | 127 | 3.5 | 5.2 | 0.00 | 0.00 | 0.00 | 87 | 1010.9 |
| 20260502231057 | 51 | 125 | 2.6 | 4.3 | 0.00 | 0.00 | 0.00 | 86 | 1010.9 |
| 20260502230557 | 51 | 129 | 2.6 | 4.3 | 0.00 | 0.00 | 0.00 | 85 | 1010.9 |
| 20260502230059 | 51 | 127 | 2.6 | 4.3 | 0.00 | 0.00 | 0.00 | 85 | 1010.9 |
| 20260502225556 | 51 | 110 | 2.6 | 4.3 | 0.00 | 0.00 | 0.00 | 84 | 1010.9 |
| 20260502225057 | 51 | 138 | 2.6 | 4.3 | 0.00 | 0.00 | 0.00 | 84 | 1011.0 |
| 20260502224558 | 51 | 129 | 1.7 | 4.3 | 0.00 | 0.00 | 0.00 | 85 | 1011.0 |
| 20260502224057 | 51 | 126 | 2.6 | 5.2 | 0.00 | 0.00 | 0.00 | 84 | 1010.9 |
| 20260502223557 | 51 | 123 | 2.6 | 7.0 | 0.00 | 0.00 | 0.00 | 84 | 1010.9 |
| 20260502223059 | 51 | 123 | 4.3 | 7.0 | 0.00 | 0.00 | 0.00 | 84 | 1010.9 |
| 20260502222558 | 52 | 110 | 5.2 | 7.0 | 0.00 | 0.00 | 0.00 | 83 | 1010.9 |
| 20260502222101 | 52 | 150 | 1.7 | 3.5 | 0.00 | 0.00 | 0.00 | 83 | 1010.9 |
| 20260502221558 | 52 | 150 | 1.7 | 3.5 | 0.00 | 0.00 | 0.00 | 83 | 1010.8 |
| 20260502221058 | 52 | 150 | 1.7 | 4.3 | 0.00 | 0.00 | 0.00 | 84 | 1010.7 |
| 20260502220557 | 52 | 150 | 1.7 | 4.3 | 0.00 | 0.00 | 0.00 | 83 | 1010.8 |
| 20260502220058 | 52 | 150 | 2.6 | 3.5 | 0.00 | 0.00 | 0.00 | 83 | 1010.8 |
| 20260502215557 | 52 | 142 | 1.7 | 3.5 | 0.00 | 0.00 | 0.00 | 83 | 1010.9 |
| 20260502215058 | 52 | 142 | 2.6 | 4.3 | 0.00 | 0.00 | 0.00 | 84 | 1010.9 |
| 20260502214555 | 52 | 142 | 2.6 | 4.3 | 0.00 | 0.00 | 0.00 | 84 | 1010.9 |
| 20260502214057 | 52 | 132 | 2.6 | 5.2 | 0.00 | 0.00 | 0.00 | 84 | 1010.9 |
| 20260502213557 | 52 | 128 | 2.6 | 6.1 | 0.00 | 0.00 | 0.00 | 84 | 1010.8 |
| 20260502213057 | 52 | 122 | 2.6 | 6.1 | 0.00 | 0.00 | 0.00 | 83 | 1010.8 |
| 20260502212557 | 52 | 115 | 0.0 | 1.7 | 0.00 | 0.00 | 0.00 | 82 | 1010.7 |
| 20260502212057 | 52 | 0 | 0.0 | 2.6 | 0.00 | 0.00 | 0.00 | 83 | 1010.8 |
| 20260502211559 | 52 | 0 | 0.0 | 2.6 | 0.00 | 0.00 | 0.00 | 82 | 1010.7 |
| 20260502211124 | 52 | 0 | 0.0 | 0.9 | 0.00 | 0.00 | 0.00 | 82 | 1010.8 |
| 20260502210559 | 52 | 0 | 0.0 | 1.7 | 0.00 | 0.00 | 0.00 | 83 | 1010.8 |
| 20260502210056 | 52 | 0 | 0.0 | 3.5 | 0.00 | 0.00 | 0.00 | 83 | 1010.9 |
| 20260502205556 | 52 | 0 | 0.0 | 3.5 | 0.00 | 0.00 | 0.00 | 84 | 1011.0 |
| 20260502205057 | 51 | 149 | 2.6 | 4.3 | 0.00 | 0.00 | 0.00 | 84 | 1010.9 |
| 20260502204615 | 51 | 149 | 2.6 | 4.3 | 0.00 | 0.00 | 0.00 | 85 | 1010.7 |
| 20260502204057 | 51 | 149 | 1.7 | 4.3 | 0.00 | 0.00 | 0.00 | 86 | 1010.8 |
| 20260502203557 | 51 | 149 | 2.6 | 4.3 | 0.00 | 0.00 | 0.00 | 86 | 1010.9 |
| 20260502203059 | 51 | 149 | 0.9 | 2.6 | 0.00 | 0.00 | 0.00 | 86 | 1010.9 |
| 20260502202557 | 51 | 0 | 0.0 | 1.7 | 0.00 | 0.00 | 0.00 | 87 | 1011.0 |
| 20260502202057 | 51 | 0 | 0.0 | 3.5 | 0.00 | 0.00 | 0.00 | 88 | 1011.1 |
| 20260502201559 | 50 | 0 | 0.9 | 4.3 | 0.00 | 0.00 | 0.00 | 90 | 1011.1 |
| 20260502201057 | 50 | 149 | 1.7 | 5.2 | 0.00 | 0.00 | 0.00 | 90 | 1011.0 |
| 20260502200557 | 50 | 149 | 2.6 | 5.2 | 0.00 | 0.00 | 0.00 | 90 | 1011.0 |
| 20260502200058 | 50 | 149 | 3.5 | 7.0 | 0.00 | 0.00 | 0.00 | 90 | 1011.2 |
| 20260502195556 | 50 | 149 | 4.3 | 7.0 | 0.00 | 0.00 | 0.00 | 91 | 1011.2 |
| 20260502195056 | 50 | 149 | 3.5 | 7.0 | 0.00 | 0.00 | 0.00 | 91 | 1011.2 |
| 20260502194604 | 50 | 149 | 4.3 | 7.8 | 0.00 | 0.00 | 0.00 | 91 | 1011.2 |
| 20260502194056 | 50 | 149 | 5.2 | 8.7 | 0.00 | 0.00 | 0.00 | 92 | 1011.3 |
| 20260502193556 | 50 | 149 | 6.1 | 8.7 | 0.00 | 0.00 | 0.00 | 92 | 1011.4 |
| 20260502193100 | 50 | 146 | 7.0 | 8.7 | 0.00 | 0.00 | 0.00 | 92 | 1011.4 |
| 20260502192558 | 50 | 141 | 7.0 | 8.7 | 0.00 | 0.00 | 0.00 | 92 | 1011.4 |
| 20260502192058 | 49 | 138 | 7.0 | 8.7 | 0.00 | 0.00 | 0.00 | 92 | 1011.5 |
| 20260502191602 | 50 | 129 | 6.1 | 8.7 | 0.00 | 0.00 | 0.00 | 92 | 1011.6 |
| 20260502191100 | 50 | 133 | 7.0 | 8.7 | 0.00 | 0.00 | 0.00 | 92 | 1011.6 |
| 20260502190559 | 50 | 140 | 5.2 | 7.8 | 0.00 | 0.00 | 0.00 | 92 | 1011.7 |
| 20260502190057 | 50 | 115 | 5.2 | 7.8 | 0.00 | 0.00 | 0.00 | 91 | 1011.7 |
| 20260502185600 | 50 | 144 | 4.3 | 7.8 | 0.00 | 0.00 | 0.00 | 91 | 1011.7 |
| 20260502185057 | 50 | 144 | 4.3 | 7.8 | 0.00 | 0.00 | 0.00 | 91 | 1011.7 |
| 20260502184557 | 50 | 134 | 5.2 | 7.8 | 0.00 | 0.00 | 0.00 | 92 | 1011.8 |
| 20260502184057 | 50 | 136 | 4.3 | 8.7 | 0.00 | 0.00 | 0.00 | 91 | 1011.8 |
| 20260502183556 | 50 | 127 | 6.1 | 8.7 | 0.00 | 0.00 | 0.00 | 91 | 1012.0 |
| 20260502183056 | 50 | 129 | 6.1 | 7.8 | 0.00 | 0.00 | 0.00 | 91 | 1011.9 |
| 20260502182558 | 50 | 121 | 5.2 | 7.0 | 0.00 | 0.00 | 0.00 | 90 | 1011.8 |
| 20260502182057 | 50 | 139 | 3.5 | 6.1 | 0.00 | 0.00 | 0.00 | 90 | 1011.9 |
| 20260502181555 | 50 | 143 | 2.6 | 5.2 | 0.00 | 0.00 | 0.00 | 89 | 1011.9 |
| 20260502181057 | 50 | 157 | 3.5 | 6.1 | 0.00 | 0.00 | 0.00 | 89 | 1011.8 |
| 20260502180557 | 51 | 121 | 3.5 | 6.1 | 0.00 | 0.00 | 0.00 | 89 | 1011.7 |
| 20260502164057 | 50 | 187 | 2.6 | 6.1 | 0.00 | 0.00 | 0.00 | 89 | 1012.2 |
| 20260502163558 | 50 | 150 | 2.6 | 6.1 | 0.00 | 0.00 | 0.00 | 89 | 1012.2 |
| 20260502163103 | 50 | 193 | 2.6 | 6.1 | 0.00 | 0.00 | 0.00 | 89 | 1012.3 |
| 20260502162557 | 50 | 191 | 1.7 | 7.0 | 0.00 | 0.00 | 0.00 | 89 | 1012.2 |
| 20260502162058 | 50 | 163 | 1.7 | 7.0 | 0.00 | 0.00 | 0.00 | 89 | 1012.3 |
| 20260502161558 | 50 | 171 | 1.7 | 7.0 | 0.00 | 0.00 | 0.00 | 89 | 1012.3 |
| 20260502161056 | 50 | 168 | 1.7 | 7.0 | 0.00 | 0.00 | 0.00 | 89 | 1012.4 |
| 20260502160556 | 50 | 200 | 1.7 | 6.1 | 0.00 | 0.00 | 0.00 | 89 | 1012.4 |
| 20260502152058 | 50 | 196 | 5.2 | 10.4 | 0.00 | 0.00 | 0.00 | 89 | 1012.8 |
| 20260502151600 | 50 | 168 | 5.2 | 10.4 | 0.00 | 0.00 | 0.00 | 89 | 1012.8 |
| 20260502151058 | 49 | 177 | 6.1 | 10.4 | 0.00 | 0.00 | 0.00 | 89 | 1012.8 |
| 20260502150557 | 49 | 159 | 5.2 | 9.6 | 0.00 | 0.00 | 0.00 | 89 | 1012.8 |
| 20260502150111 | 49 | 163 | 6.1 | 9.6 | 0.00 | 0.00 | 0.00 | 89 | 1012.8 |
| 20260502130559 | 50 | 177 | 6.1 | 10.4 | 0.00 | 0.00 | 0.00 | 86 | 1013.0 |
| 20260502130111 | 50 | 140 | 7.8 | 8.7 | 0.00 | 0.00 | 0.00 | 87 | 1013.0 |
| 20260502123556 | 50 | 138 | 6.1 | 9.6 | 0.00 | 0.01 | 0.00 | 86 | 1012.8 |
| 20260502123103 | 50 | 136 | 7.0 | 8.7 | 0.00 | 0.01 | 0.00 | 86 | 1012.9 |
| 20260502122557 | 50 | 135 | 5.2 | 8.7 | 0.00 | 0.01 | 0.00 | 85 | 1013.0 |
| 20260502122057 | 50 | 171 | 5.2 | 8.7 | 0.00 | 0.01 | 0.00 | 84 | 1012.9 |
| 20260502121558 | 51 | 141 | 6.1 | 8.7 | 0.00 | 0.01 | 0.00 | 85 | 1013.0 |
| 20260502121058 | 51 | 145 | 4.3 | 7.8 | 0.00 | 0.01 | 0.00 | 83 | 1013.0 |
| 20260502120559 | 51 | 0 | 1.7 | 7.0 | 0.00 | 0.01 | 0.00 | 82 | 1013.0 |
| 20260502115557 | 51 | 194 | 2.6 | 7.8 | 0.00 | 0.01 | 0.00 | 83 | 1013.2 |
| 20260502115101 | 51 | 200 | 2.6 | 7.8 | 0.00 | 0.01 | 0.00 | 83 | 1013.2 |
| 20260502114557 | 51 | 202 | 4.3 | 9.6 | 0.00 | 0.01 | 0.00 | 83 | 1013.2 |
| 20260502114057 | 51 | 181 | 4.3 | 9.6 | 0.00 | 0.01 | 0.00 | 83 | 1013.1 |
| 20260502113557 | 50 | 199 | 4.3 | 9.6 | 0.00 | 0.01 | 0.00 | 83 | 1013.2 |
| 20260502113059 | 50 | 177 | 6.1 | 9.6 | 0.00 | 0.01 | 0.00 | 83 | 1013.2 |
| 20260502112556 | 50 | 193 | 4.3 | 7.8 | 0.00 | 0.01 | 0.00 | 83 | 1013.0 |
| 20260502112056 | 50 | 201 | 3.5 | 9.6 | 0.00 | 0.01 | 0.00 | 83 | 1013.0 |
| 20260502111558 | 50 | 202 | 5.2 | 9.6 | 0.00 | 0.01 | 0.00 | 83 | 1013.1 |
| 20260502111057 | 50 | 176 | 3.5 | 9.6 | 0.00 | 0.01 | 0.00 | 84 | 1012.9 |
| 20260502110557 | 50 | 175 | 4.3 | 9.6 | 0.00 | 0.01 | 0.00 | 84 | 1012.8 |
| 20260502110055 | 49 | 175 | 3.5 | 7.8 | 0.00 | 0.01 | 0.00 | 84 | 1012.8 |
| 20260502105559 | 49 | 157 | 4.3 | 8.7 | 0.00 | 0.01 | 0.00 | 84 | 1012.7 |
| 20260502105057 | 49 | 208 | 4.3 | 9.6 | 0.00 | 0.01 | 0.00 | 84 | 1012.8 |
| 20260502104558 | 49 | 190 | 4.3 | 9.6 | 0.00 | 0.01 | 0.00 | 84 | 1012.7 |
| 20260502104057 | 49 | 191 | 4.3 | 9.6 | 0.00 | 0.01 | 0.00 | 85 | 1012.5 |
| 20260502103559 | 49 | 186 | 5.2 | 9.6 | 0.00 | 0.01 | 0.00 | 85 | 1012.6 |
| 20260502103058 | 49 | 172 | 3.5 | 7.0 | 0.00 | 0.01 | 0.00 | 85 | 1012.6 |
| 20260502102558 | 49 | 192 | 2.6 | 9.6 | 0.00 | 0.01 | 0.00 | 85 | 1012.6 |
| 20260502102057 | 49 | 186 | 4.3 | 9.6 | 0.00 | 0.01 | 0.00 | 85 | 1012.7 |
| 20260502101556 | 49 | 183 | 4.3 | 9.6 | 0.00 | 0.01 | 0.00 | 86 | 1012.8 |
| 20260502101058 | 49 | 177 | 5.2 | 9.6 | 0.00 | 0.01 | 0.00 | 86 | 1012.7 |
| 20260502100557 | 49 | 171 | 4.3 | 8.7 | 0.00 | 0.01 | 0.00 | 86 | 1012.7 |
| 20260502091059 | 49 | 194 | 4.3 | 11.3 | 0.00 | 0.01 | 0.00 | 85 | 1012.9 |
| 20260502090557 | 49 | 169 | 5.2 | 10.4 | 0.00 | 0.01 | 0.00 | 85 | 1012.8 |
| 20260502080106 | 48 | 192 | 4.3 | 8.7 | 0.00 | 0.01 | 0.00 | 86 | 1012.8 |
| 20260502071056 | 49 | 177 | 2.6 | 7.0 | 0.00 | 0.01 | 0.00 | 84 | 1012.7 |
| 20260502070558 | 49 | 156 | 2.6 | 7.8 | 0.00 | 0.01 | 0.00 | 84 | 1012.8 |
| 20260502070057 | 49 | 166 | 3.5 | 7.8 | 0.00 | 0.01 | 0.00 | 84 | 1012.8 |
| 20260502065558 | 49 | 179 | 3.5 | 7.8 | 0.00 | 0.01 | 0.00 | 84 | 1012.8 |
| 20260502065058 | 49 | 190 | 3.5 | 8.7 | 0.00 | 0.01 | 0.00 | 84 | 1013.0 |
| 20260502064600 | 49 | 179 | 4.3 | 8.7 | 0.00 | 0.01 | 0.00 | 84 | 1013.1 |
| 20260502064057 | 49 | 192 | 4.3 | 7.8 | 0.00 | 0.01 | 0.00 | 83 | 1013.2 |
| 20260502063558 | 49 | 177 | 1.7 | 7.0 | 0.00 | 0.01 | 0.00 | 83 | 1013.2 |
| 20260502063119 | 49 | 174 | 2.6 | 7.0 | 0.00 | 0.01 | 0.00 | 83 | 1013.1 |
| 20260502062557 | 49 | 180 | 3.5 | 8.7 | 0.00 | 0.01 | 0.00 | 82 | 1013.2 |
| 20260502062057 | 49 | 184 | 4.3 | 8.7 | 0.00 | 0.01 | 0.00 | 82 | 1013.3 |
| 20260502061559 | 49 | 165 | 4.3 | 11.3 | 0.00 | 0.01 | 0.00 | 82 | 1013.3 |
| 20260502061056 | 49 | 175 | 7.0 | 11.3 | 0.00 | 0.01 | 0.00 | 82 | 1013.5 |
| 20260502060557 | 49 | 158 | 7.8 | 11.3 | 0.00 | 0.01 | 0.00 | 81 | 1013.2 |
| 20260502060059 | 49 | 153 | 7.8 | 10.4 | 0.00 | 0.01 | 0.00 | 80 | 1013.2 |
| 20260502055559 | 49 | 192 | 7.0 | 10.4 | 0.00 | 0.01 | 0.00 | 80 | 1013.2 |
| 20260502055059 | 49 | 165 | 6.1 | 11.3 | 0.00 | 0.01 | 0.00 | 79 | 1013.3 |
| 20260502054606 | 50 | 156 | 7.8 | 11.3 | 0.00 | 0.01 | 0.00 | 78 | 1013.3 |
| 20260502054057 | 50 | 167 | 7.0 | 11.3 | 0.00 | 0.01 | 0.00 | 79 | 1013.2 |
| 20260502053557 | 50 | 162 | 4.3 | 10.4 | 0.00 | 0.01 | 0.00 | 78 | 1013.2 |
| 20260502053102 | 50 | 159 | 6.1 | 11.3 | 0.00 | 0.01 | 0.00 | 78 | 1013.3 |
| 20260502052558 | 49 | 171 | 6.1 | 11.3 | 0.00 | 0.01 | 0.00 | 79 | 1013.5 |
| 20260502052101 | 49 | 189 | 7.0 | 11.3 | 0.00 | 0.01 | 0.00 | 79 | 1013.4 |
| 20260502051557 | 49 | 186 | 7.0 | 11.3 | 0.00 | 0.01 | 0.00 | 79 | 1013.4 |
| 20260502051058 | 50 | 173 | 6.1 | 10.4 | 0.00 | 0.01 | 0.00 | 80 | 1013.4 |
| 20260502050557 | 50 | 155 | 7.0 | 10.4 | 0.00 | 0.01 | 0.00 | 82 | 1013.4 |
| 20260502050057 | 49 | 161 | 4.3 | 8.7 | 0.00 | 0.01 | 0.00 | 81 | 1013.5 |
| 20260502045556 | 49 | 169 | 4.3 | 8.7 | 0.00 | 0.01 | 0.00 | 81 | 1013.4 |
| 20260502045058 | 49 | 165 | 5.2 | 8.7 | 0.00 | 0.01 | 0.00 | 82 | 1013.4 |
| 20260502044557 | 49 | 171 | 6.1 | 8.7 | 0.00 | 0.01 | 0.00 | 83 | 1013.5 |
| 20260502044057 | 49 | 162 | 4.3 | 8.7 | 0.00 | 0.01 | 0.00 | 83 | 1013.7 |
| 20260502043556 | 49 | 165 | 3.5 | 8.7 | 0.00 | 0.01 | 0.00 | 83 | 1013.6 |
| 20260502043103 | 49 | 174 | 3.5 | 8.7 | 0.00 | 0.01 | 0.00 | 83 | 1013.7 |
| 20260502042557 | 49 | 188 | 5.2 | 11.3 | 0.00 | 0.01 | 0.00 | 82 | 1013.7 |
| 20260502042056 | 49 | 161 | 5.2 | 11.3 | 0.00 | 0.01 | 0.00 | 82 | 1013.7 |
| 20260502041602 | 49 | 184 | 7.0 | 11.3 | 0.00 | 0.01 | 0.00 | 82 | 1013.7 |
| 20260502041057 | 49 | 169 | 7.0 | 10.4 | 0.00 | 0.01 | 0.00 | 82 | 1013.7 |
| 20260502040557 | 49 | 165 | 6.1 | 9.6 | 0.00 | 0.01 | 0.00 | 82 | 1013.8 |
| 20260502040105 | 49 | 188 | 5.2 | 9.6 | 0.00 | 0.01 | 0.00 | 81 | 1013.7 |
| 20260502035557 | 49 | 160 | 4.3 | 7.8 | 0.00 | 0.01 | 0.01 | 82 | 1013.7 |
| 20260502035058 | 49 | 187 | 4.3 | 7.8 | 0.00 | 0.01 | 0.01 | 81 | 1013.7 |
| 20260502034559 | 49 | 172 | 4.3 | 7.8 | 0.00 | 0.01 | 0.01 | 80 | 1013.6 |
| 20260502034057 | 49 | 192 | 4.3 | 8.7 | 0.00 | 0.01 | 0.01 | 81 | 1013.6 |
| 20260502033556 | 49 | 173 | 4.3 | 8.7 | 0.00 | 0.01 | 0.01 | 80 | 1013.7 |
| 20260502033057 | 49 | 186 | 4.3 | 9.6 | 0.00 | 0.01 | 0.01 | 81 | 1013.8 |
| 20260502032556 | 49 | 169 | 4.3 | 9.6 | 0.00 | 0.01 | 0.01 | 81 | 1013.9 |
| 20260502032057 | 49 | 184 | 6.1 | 9.6 | 0.00 | 0.01 | 0.01 | 81 | 1013.8 |
| 20260502031600 | 49 | 178 | 5.2 | 11.3 | 0.00 | 0.01 | 0.01 | 81 | 1013.9 |
| 20260502031057 | 49 | 167 | 6.1 | 11.3 | 0.00 | 0.01 | 0.01 | 80 | 1014.0 |
| 20260502030558 | 49 | 161 | 7.0 | 11.3 | 0.00 | 0.01 | 0.01 | 80 | 1014.0 |
| 20260502030101 | 49 | 181 | 4.3 | 12.2 | 0.00 | 0.01 | 0.01 | 79 | 1014.0 |
| 20260502025557 | 49 | 190 | 4.3 | 12.2 | 0.00 | 0.01 | 0.01 | 79 | 1014.0 |
| 20260502025101 | 49 | 190 | 4.3 | 12.2 | 0.00 | 0.01 | 0.01 | 78 | 1014.0 |
| 20260502024606 | 49 | 200 | 7.0 | 10.4 | 0.00 | 0.01 | 0.01 | 77 | 1013.9 |
| 20260502024058 | 49 | 180 | 5.2 | 10.4 | 0.00 | 0.01 | 0.01 | 77 | 1014.0 |
| 20260502023557 | 49 | 163 | 5.2 | 10.4 | 0.00 | 0.01 | 0.01 | 77 | 1013.9 |
| 20260502023057 | 49 | 196 | 6.1 | 9.6 | 0.00 | 0.01 | 0.01 | 78 | 1014.0 |
| 20260502022557 | 49 | 178 | 3.5 | 9.6 | 0.00 | 0.01 | 0.01 | 79 | 1013.8 |
| 20260502022057 | 49 | 188 | 4.3 | 9.6 | 0.00 | 0.01 | 0.01 | 79 | 1013.8 |
| 20260502021556 | 49 | 188 | 4.3 | 9.6 | 0.00 | 0.01 | 0.01 | 80 | 1013.8 |
| 20260502021057 | 49 | 179 | 4.3 | 7.8 | 0.00 | 0.01 | 0.01 | 80 | 1013.8 |
| 20260502020558 | 49 | 193 | 3.5 | 7.8 | 0.00 | 0.01 | 0.01 | 80 | 1013.8 |
| 20260502020058 | 49 | 212 | 4.3 | 7.8 | 0.00 | 0.01 | 0.01 | 80 | 1013.8 |
| 20260502015600 | 49 | 182 | 3.5 | 7.8 | 0.00 | 0.01 | 0.01 | 80 | 1013.7 |
| 20260502015058 | 49 | 175 | 3.5 | 7.8 | 0.00 | 0.01 | 0.01 | 80 | 1013.6 |
| 20260502014559 | 49 | 190 | 2.6 | 5.2 | 0.00 | 0.01 | 0.01 | 79 | 1013.4 |
| 20260502014057 | 49 | 167 | 2.6 | 8.7 | 0.00 | 0.01 | 0.01 | 80 | 1013.4 |
| 20260502013557 | 49 | 206 | 3.5 | 8.7 | 0.00 | 0.01 | 0.01 | 79 | 1013.5 |
| 20260502013057 | 49 | 184 | 4.3 | 7.8 | 0.00 | 0.01 | 0.01 | 79 | 1013.5 |
| 20260502012557 | 49 | 177 | 4.3 | 7.8 | 0.00 | 0.01 | 0.01 | 79 | 1013.4 |
| 20260502012057 | 49 | 186 | 2.6 | 7.8 | 0.00 | 0.01 | 0.01 | 79 | 1013.4 |
| 20260502011602 | 49 | 181 | 4.3 | 8.7 | 0.00 | 0.01 | 0.01 | 79 | 1013.4 |
| 20260502011058 | 49 | 177 | 3.5 | 8.7 | 0.00 | 0.01 | 0.01 | 79 | 1013.3 |
| 20260502010557 | 49 | 169 | 4.3 | 8.7 | 0.00 | 0.01 | 0.01 | 79 | 1013.3 |
| 20260502010059 | 49 | 173 | 3.5 | 8.7 | 0.00 | 0.01 | 0.01 | 79 | 1013.3 |
| 20260502005558 | 49 | 179 | 4.3 | 10.4 | 0.00 | 0.01 | 0.01 | 79 | 1013.3 |
| 20260502005058 | 49 | 174 | 4.3 | 10.4 | 0.00 | 0.01 | 0.01 | 78 | 1013.3 |
| 20260502004604 | 50 | 196 | 5.2 | 10.4 | 0.00 | 0.01 | 0.01 | 78 | 1013.4 |
| 20260502004059 | 49 | 200 | 5.2 | 10.4 | 0.00 | 0.01 | 0.01 | 78 | 1013.4 |
| 20260502003557 | 49 | 184 | 5.2 | 11.3 | 0.00 | 0.01 | 0.01 | 78 | 1013.3 |
| 20260502003100 | 49 | 186 | 6.1 | 11.3 | 0.00 | 0.01 | 0.01 | 78 | 1013.2 |
| 20260502002558 | 49 | 182 | 6.1 | 10.4 | 0.00 | 0.01 | 0.01 | 78 | 1013.2 |